Time;durP1;ratioP1;P1;durP2;ratioP2;P2;SDS_P1;SDS_P2;PMS_P1;PMS_P2;Temp;Humidity;BMP_temperature;BMP_pressure;BME280_temperature;BME280_humidity;BME280_pressure;Samples;Min_cycle;Max_cycle;Signal;HPM_P1;HPM_P2
2023/01/04 00:01:13;;;;;;;20.77;13.90;;;5.00;97.70;;;;;;5016257;28;20510;-63
2023/01/04 00:03:39;;;;;;;15.80;12.73;;;5.00;98.00;;;;;;5037266;28;20498;-63
2023/01/04 00:06:06;;;;;;;19.37;13.33;;;5.00;97.90;;;;;;5035545;28;20917;-63
2023/01/04 00:08:33;;;;;;;18.07;12.90;;;5.00;98.00;;;;;;5038735;28;20945;-63
2023/01/04 00:11:05;;;;;;;20.00;12.90;;;5.00;98.10;;;;;;5037866;28;20429;-63
2023/01/04 00:13:31;;;;;;;18.33;12.30;;;5.00;98.10;;;;;;5039223;28;20436;-63
2023/01/04 00:15:57;;;;;;;20.00;12.30;;;5.00;98.10;;;;;;5036391;28;20526;-63
2023/01/04 00:18:23;;;;;;;14.07;11.57;;;5.00;98.20;;;;;;5037523;28;20436;-63
2023/01/04 00:20:48;;;;;;;18.53;13.37;;;5.00;98.00;;;;;;5004172;28;20422;-63
2023/01/04 00:23:14;;;;;;;17.07;12.97;;;5.00;98.20;;;;;;5019123;28;20285;-63
2023/01/04 00:25:40;;;;;;;17.10;12.23;;;4.90;98.20;;;;;;5013783;28;20210;-63
2023/01/04 00:28:06;;;;;;;18.20;11.93;;;5.00;98.20;;;;;;5032365;28;20203;-63
2023/01/04 00:30:31;;;;;;;14.77;12.13;;;5.00;98.30;;;;;;5011319;28;20701;-63
2023/01/04 00:32:57;;;;;;;18.97;13.40;;;4.90;98.30;;;;;;5014900;28;20219;-63
2023/01/04 00:35:23;;;;;;;27.47;15.50;;;4.90;98.30;;;;;;5020253;28;20196;-63
2023/01/04 00:37:49;;;;;;;24.33;17.10;;;4.90;98.20;;;;;;5017664;28;20504;-63
2023/01/04 00:40:15;;;;;;;19.77;13.87;;;4.90;98.20;;;;;;5009434;28;20184;-63
2023/01/04 00:42:40;;;;;;;18.83;13.23;;;5.00;98.20;;;;;;5009535;28;20210;-64
2023/01/04 00:45:07;;;;;;;20.77;14.20;;;5.00;98.40;;;;;;5012479;28;20564;-63
2023/01/04 00:47:32;;;;;;;19.77;14.57;;;5.00;98.30;;;;;;5024329;28;20214;-63
2023/01/04 00:49:58;;;;;;;16.53;12.43;;;5.00;98.30;;;;;;5022940;28;20442;-63
2023/01/04 00:52:57;;;;;;;16.40;12.03;;;5.00;98.40;;;;;;5006505;28;20292;-63
2023/01/04 00:55:22;;;;;;;17.40;11.77;;;5.00;98.50;;;;;;5023868;28;20286;-63
2023/01/04 00:57:48;;;;;;;18.77;12.83;;;5.00;98.40;;;;;;5027758;28;20525;-63
2023/01/04 01:00:14;;;;;;;17.13;12.03;;;5.00;98.30;;;;;;5019498;28;20267;-63
2023/01/04 01:02:40;;;;;;;17.87;13.07;;;5.00;98.50;;;;;;5020209;28;20200;-63
2023/01/04 01:05:06;;;;;;;19.00;13.60;;;5.00;98.50;;;;;;5011257;28;20434;-63
2023/01/04 01:07:32;;;;;;;17.50;11.87;;;5.00;98.60;;;;;;5025572;28;20243;-63
2023/01/04 01:09:58;;;;;;;16.03;11.60;;;5.00;98.50;;;;;;5029070;28;20444;-63
2023/01/04 01:12:23;;;;;;;16.27;11.27;;;5.00;98.60;;;;;;5028783;28;20218;-63
2023/01/04 01:14:49;;;;;;;17.53;11.70;;;5.00;98.40;;;;;;5017706;28;20195;-63
2023/01/04 01:17:15;;;;;;;15.00;11.73;;;5.10;98.50;;;;;;5009348;28;20198;-64
2023/01/04 01:19:40;;;;;;;16.53;11.53;;;5.10;98.60;;;;;;5012687;28;20195;-63
2023/01/04 01:22:08;;;;;;;18.07;11.57;;;5.10;98.60;;;;;;5021293;28;20218;-63
2023/01/04 01:24:34;;;;;;;17.40;12.00;;;5.10;98.50;;;;;;5039416;28;20222;-63
2023/01/04 01:26:59;;;;;;;16.53;11.37;;;5.10;98.60;;;;;;5011965;28;20528;-63
2023/01/04 01:29:25;;;;;;;15.43;11.07;;;5.10;98.70;;;;;;5023678;28;20274;-63
2023/01/04 01:31:51;;;;;;;18.13;12.70;;;5.10;98.70;;;;;;5018669;28;20256;-63
2023/01/04 01:34:16;;;;;;;17.03;12.23;;;5.10;98.40;;;;;;5017875;28;20190;-63
2023/01/04 01:36:42;;;;;;;13.63;10.80;;;5.10;98.20;;;;;;5009199;28;20194;-63
2023/01/04 01:39:08;;;;;;;16.63;13.50;;;5.10;98.50;;;;;;5027829;28;20180;-63
2023/01/04 01:41:34;;;;;;;20.30;13.10;;;5.10;97.80;;;;;;5008986;28;20196;-63
2023/01/04 01:44:23;;;;;;;15.47;11.47;;;5.10;97.90;;;;;;5034102;28;20281;-63
2023/01/04 01:46:52;;;;;;;15.90;11.03;;;5.10;98.30;;;;;;5039961;28;20441;-63
2023/01/04 01:49:36;;;;;;;17.20;12.80;;;5.10;98.50;;;;;;5039339;28;20496;-63
2023/01/04 01:52:05;;;;;;;16.70;12.80;;;5.20;98.50;;;;;;5017409;28;20464;-63
2023/01/04 01:54:47;;;;;;;18.30;12.00;;;5.10;98.50;;;;;;5028028;28;20429;-63
2023/01/04 01:57:18;;;;;;;16.93;12.20;;;5.10;98.60;;;;;;5025969;28;20433;-63
2023/01/04 01:59:46;;;;;;;15.77;11.10;;;5.20;98.70;;;;;;5019430;28;20441;-63
2023/01/04 02:02:12;;;;;;;15.27;10.97;;;5.20;98.60;;;;;;5015955;28;20443;-63
2023/01/04 02:04:41;;;;;;;16.57;11.83;;;5.20;98.60;;;;;;5011932;28;20440;-63
2023/01/04 02:07:08;;;;;;;19.33;13.47;;;5.20;98.60;;;;;;5019183;28;20239;-64
2023/01/04 02:09:35;;;;;;;18.47;11.97;;;5.10;98.10;;;;;;5030479;28;20437;-63
2023/01/04 02:12:01;;;;;;;17.10;12.43;;;5.10;98.00;;;;;;5030152;28;20565;-63
2023/01/04 02:14:27;;;;;;;18.83;12.77;;;5.20;98.40;;;;;;5020288;28;20566;-63
2023/01/04 02:17:12;;;;;;;17.53;12.83;;;5.10;98.10;;;;;;5006517;28;20194;-63
2023/01/04 02:20:01;;;;;;;16.23;12.17;;;5.10;97.10;;;;;;5029468;28;20441;-63
2023/01/04 02:23:11;;;;;;;17.23;11.87;;;5.10;97.90;;;;;;5028074;28;20433;-63
2023/01/04 02:26:03;;;;;;;17.33;12.93;;;5.10;97.90;;;;;;5008545;28;20473;-63
2023/01/04 02:28:38;;;;;;;16.20;11.33;;;5.10;97.80;;;;;;5020577;28;20484;-63
2023/01/04 02:31:19;;;;;;;12.73;10.70;;;5.10;98.20;;;;;;5019234;28;20508;-63
2023/01/04 02:33:57;;;;;;;14.97;11.07;;;5.10;98.20;;;;;;5040351;28;20431;-63
2023/01/04 02:36:39;;;;;;;16.90;11.20;;;5.10;98.10;;;;;;5026953;28;20430;-63
2023/01/04 02:39:20;;;;;;;15.00;11.53;;;5.10;97.70;;;;;;5042273;28;20414;-63
2023/01/04 02:42:01;;;;;;;16.60;12.20;;;5.20;98.20;;;;;;5036201;28;20429;-63
2023/01/04 02:44:58;;;;;;;14.57;10.57;;;5.10;97.60;;;;;;5025609;28;20444;-63
2023/01/04 02:50:30;;;;;;;12.53;9.27;;;5.20;98.30;;;;;;5048044;28;20443;-63
2023/01/04 02:53:05;;;;;;;14.57;11.07;;;5.30;98.40;;;;;;5023151;28;20533;-63
2023/01/04 02:55:47;;;;;;;16.40;11.73;;;5.30;98.40;;;;;;5039336;28;20425;-63
2023/01/04 02:58:39;;;;;;;16.70;10.90;;;5.30;97.90;;;;;;5029855;28;20433;-63
2023/01/04 03:07:32;;;;;;;13.60;10.50;;;5.30;98.30;;;;;;5028828;28;20497;-63
2023/01/04 03:10:11;;;;;;;12.07;9.00;;;5.30;98.20;;;;;;5007743;28;20469;-63
2023/01/04 03:12:53;;;;;;;14.10;9.63;;;5.30;98.20;;;;;;5045134;28;20467;-63
2023/01/04 03:15:30;;;;;;;14.63;10.20;;;5.30;98.20;;;;;;5022749;28;20466;-64
2023/01/04 03:18:21;;;;;;;13.97;8.93;;;5.30;98.10;;;;;;5026741;28;20461;-63
2023/01/04 03:20:48;;;;;;;12.63;9.57;;;5.30;98.20;;;;;;5033914;28;20429;-63
2023/01/04 03:35:22;;;;;;;13.40;10.37;;;5.30;98.30;;;;;;4970971;28;20428;-63
2023/01/04 03:49:56;;;;;;;12.20;9.37;;;5.30;98.00;;;;;;5023338;28;20438;-63
2023/01/04 03:52:27;;;;;;;12.27;10.07;;;5.30;98.10;;;;;;5019368;28;20478;-63
2023/01/04 03:54:56;;;;;;;14.03;10.43;;;5.30;98.00;;;;;;5026607;28;20436;-64
2023/01/04 03:57:23;;;;;;;12.67;9.07;;;5.30;98.20;;;;;;5030246;28;20526;-63
2023/01/04 03:59:54;;;;;;;11.70;9.43;;;5.30;98.20;;;;;;5040614;28;20437;-63
2023/01/04 04:02:27;;;;;;;11.60;9.63;;;5.30;98.30;;;;;;5042671;28;20430;-63
2023/01/04 04:10:21;;;;;;;13.50;10.13;;;5.30;98.40;;;;;;5043196;28;20450;-63
2023/01/04 04:12:47;;;;;;;13.37;9.97;;;5.30;98.20;;;;;;5024990;28;20473;-63
2023/01/04 04:15:14;;;;;;;14.40;10.43;;;5.30;98.20;;;;;;5029847;28;20180;-63
2023/01/04 04:17:40;;;;;;;13.57;10.23;;;5.30;98.30;;;;;;5030889;28;20442;-63
2023/01/04 04:20:06;;;;;;;12.43;9.83;;;5.30;98.30;;;;;;5030848;28;20440;-63
2023/01/04 04:22:32;;;;;;;12.70;10.23;;;5.30;98.20;;;;;;5022116;28;20488;-63
2023/01/04 04:24:57;;;;;;;12.60;10.10;;;5.30;98.20;;;;;;5014537;28;20461;-63
2023/01/04 04:27:23;;;;;;;14.57;10.53;;;5.30;98.20;;;;;;5032641;28;20213;-63
2023/01/04 04:29:49;;;;;;;14.33;10.63;;;5.30;97.00;;;;;;5003773;28;20187;-63
2023/01/04 04:32:14;;;;;;;16.53;11.03;;;5.30;97.80;;;;;;5012641;28;20203;-63
2023/01/04 04:34:40;;;;;;;13.40;10.23;;;5.30;97.80;;;;;;5010618;28;20188;-63
2023/01/04 04:37:06;;;;;;;15.83;11.23;;;5.30;98.00;;;;;;5024578;28;20263;-63
2023/01/04 04:39:32;;;;;;;13.27;9.80;;;5.30;97.70;;;;;;5029415;28;20184;-63
2023/01/04 04:41:57;;;;;;;13.67;10.77;;;5.30;97.10;;;;;;5028226;28;20191;-63
2023/01/04 04:44:23;;;;;;;13.27;9.47;;;5.20;97.30;;;;;;5030219;28;20232;-63
2023/01/04 04:46:49;;;;;;;14.03;10.70;;;5.30;97.90;;;;;;5043741;28;20187;-64
2023/01/04 04:49:15;;;;;;;11.33;9.27;;;5.30;98.00;;;;;;5036087;28;20191;-63
2023/01/04 04:51:42;;;;;;;11.17;8.93;;;5.30;97.80;;;;;;5035537;28;20265;-63
2023/01/04 04:54:09;;;;;;;14.60;9.97;;;5.30;98.20;;;;;;5025431;28;20430;-63
2023/01/04 04:56:36;;;;;;;14.90;11.17;;;5.30;98.30;;;;;;5030745;28;20439;-64
2023/01/04 04:59:05;;;;;;;13.73;10.33;;;5.30;98.20;;;;;;5020052;28;20422;-63
2023/01/04 05:01:31;;;;;;;12.03;9.03;;;5.30;98.20;;;;;;5032636;28;20472;-63
2023/01/04 05:03:57;;;;;;;12.50;9.57;;;5.30;98.20;;;;;;5037943;28;20452;-63
2023/01/04 05:06:23;;;;;;;11.50;9.03;;;5.30;98.10;;;;;;5018837;28;20498;-64
2023/01/04 05:08:49;;;;;;;13.57;9.03;;;5.30;98.30;;;;;;5033036;28;20186;-63
2023/01/04 05:11:15;;;;;;;13.27;10.07;;;5.30;98.20;;;;;;5020930;28;20426;-63
2023/01/04 05:13:41;;;;;;;15.57;10.50;;;5.30;98.20;;;;;;5017940;28;20674;-63
2023/01/04 05:16:08;;;;;;;13.50;9.90;;;5.30;97.50;;;;;;5017785;28;20457;-64
2023/01/04 05:18:34;;;;;;;12.63;10.03;;;5.30;98.20;;;;;;5024677;28;20209;-63
2023/01/04 05:21:01;;;;;;;10.03;8.17;;;5.30;98.30;;;;;;5019214;28;20506;-64
2023/01/04 05:23:27;;;;;;;12.43;10.13;;;5.30;98.30;;;;;;5013058;28;20512;-63
2023/01/04 05:25:56;;;;;;;13.13;10.17;;;5.30;97.40;;;;;;5019071;28;20803;-63
2023/01/04 05:28:22;;;;;;;12.40;9.70;;;5.30;98.00;;;;;;5033937;28;20192;-63
2023/01/04 05:30:54;;;;;;;12.07;8.67;;;5.30;98.20;;;;;;5042951;28;20453;-63
2023/01/04 05:33:28;;;;;;;10.30;8.20;;;5.30;98.40;;;;;;5016309;28;20334;-63
2023/01/04 05:35:56;;;;;;;13.37;9.77;;;5.30;98.50;;;;;;5033381;28;20439;-63
2023/01/04 05:38:22;;;;;;;11.90;8.93;;;5.40;98.50;;;;;;5031271;28;20458;-63
2023/01/04 05:40:49;;;;;;;11.97;9.60;;;5.40;98.60;;;;;;5031684;28;20440;-63
2023/01/04 05:43:15;;;;;;;13.07;9.93;;;5.40;98.60;;;;;;5031217;28;20437;-63
2023/01/04 05:45:50;;;;;;;15.47;9.80;;;5.40;98.20;;;;;;5029852;28;20457;-63
2023/01/04 05:48:16;;;;;;;15.67;10.20;;;5.40;98.40;;;;;;5027197;28;20439;-63
2023/01/04 05:50:44;;;;;;;12.80;9.10;;;5.40;98.40;;;;;;5028715;28;20422;-63
2023/01/04 05:53:13;;;;;;;11.73;8.73;;;5.40;98.50;;;;;;5015620;28;20474;-63
2023/01/04 05:55:38;;;;;;;14.50;9.57;;;5.50;98.40;;;;;;5030997;28;20457;-63
2023/01/04 05:58:04;;;;;;;10.53;9.43;;;5.50;98.50;;;;;;5027546;28;20466;-63
2023/01/04 06:00:30;;;;;;;13.07;9.67;;;5.50;98.40;;;;;;5035980;28;20190;-63
2023/01/04 06:02:56;;;;;;;13.87;10.43;;;5.50;98.60;;;;;;5026194;28;20187;-63
2023/01/04 06:05:23;;;;;;;12.93;9.17;;;5.50;98.60;;;;;;5000144;28;20314;-63
2023/01/04 06:07:49;;;;;;;12.13;10.63;;;5.50;98.50;;;;;;5015489;28;20265;-63
2023/01/04 06:10:16;;;;;;;12.27;8.77;;;5.40;98.10;;;;;;5044702;28;20507;-63
2023/01/04 06:12:42;;;;;;;15.93;11.30;;;5.40;98.20;;;;;;5038678;28;20248;-63
2023/01/04 06:15:09;;;;;;;11.80;9.73;;;5.40;98.20;;;;;;5006404;28;20469;-63
2023/01/04 06:17:36;;;;;;;16.13;10.97;;;5.40;98.40;;;;;;5031070;28;20271;-63
2023/01/04 06:20:03;;;;;;;11.53;9.57;;;5.40;98.40;;;;;;5021429;28;20502;-64
2023/01/04 06:22:29;;;;;;;11.43;9.27;;;5.50;98.40;;;;;;5011373;28;20445;-64
2023/01/04 06:24:55;;;;;;;13.27;9.70;;;5.50;98.40;;;;;;5015970;28;20426;-61
2023/01/04 06:27:20;;;;;;;12.40;9.43;;;5.50;98.50;;;;;;5021517;28;20179;-63
2023/01/04 06:29:46;;;;;;;13.17;9.17;;;5.50;98.50;;;;;;5030142;28;20202;-63
2023/01/04 06:32:12;;;;;;;11.80;9.87;;;5.50;98.40;;;;;;5014889;28;20215;-63
2023/01/04 06:34:37;;;;;;;12.97;9.53;;;5.50;98.50;;;;;;5018790;28;20250;-64
2023/01/04 06:37:04;;;;;;;13.23;9.07;;;5.50;98.50;;;;;;5008419;28;20269;-64
2023/01/04 06:39:30;;;;;;;12.33;9.47;;;5.50;98.50;;;;;;5015752;28;20281;-65
2023/01/04 06:41:56;;;;;;;13.57;9.60;;;5.50;98.40;;;;;;5007203;28;20475;-65
2023/01/04 06:44:22;;;;;;;10.60;9.13;;;5.50;98.50;;;;;;5036414;28;20210;-65
2023/01/04 06:46:47;;;;;;;11.73;10.03;;;5.50;98.20;;;;;;5006917;28;20715;-65
2023/01/04 06:49:13;;;;;;;12.83;10.07;;;5.50;98.00;;;;;;5023487;28;20194;-64
2023/01/04 06:51:39;;;;;;;11.30;9.10;;;5.50;97.90;;;;;;5025394;28;20207;-64
2023/01/04 06:54:05;;;;;;;10.77;9.13;;;5.50;97.90;;;;;;5010266;28;20191;-64
2023/01/04 06:56:31;;;;;;;13.13;9.23;;;5.50;97.30;;;;;;5029194;28;20175;-64
2023/01/04 06:58:57;;;;;;;10.10;8.57;;;5.50;97.60;;;;;;5013273;28;20188;-67
2023/01/04 07:01:23;;;;;;;13.93;9.57;;;5.50;97.70;;;;;;5004252;28;20176;-65
2023/01/04 07:03:48;;;;;;;15.43;9.93;;;5.50;97.80;;;;;;5012025;28;20465;-64
2023/01/04 07:06:14;;;;;;;16.27;9.60;;;5.50;98.00;;;;;;5002753;28;20184;-64
2023/01/04 07:08:40;;;;;;;12.77;9.47;;;5.50;98.20;;;;;;5023824;28;20274;-66
2023/01/04 07:11:05;;;;;;;10.43;8.70;;;5.60;98.00;;;;;;5004649;28;20258;-64
2023/01/04 07:13:31;;;;;;;13.10;9.47;;;5.60;98.20;;;;;;5023447;28;20212;-64
2023/01/04 07:15:57;;;;;;;12.03;9.70;;;5.60;98.20;;;;;;5026167;28;20183;-64
2023/01/04 07:18:23;;;;;;;10.67;8.93;;;5.60;98.30;;;;;;5015313;28;20179;-64
2023/01/04 07:20:48;;;;;;;12.63;9.67;;;5.60;98.20;;;;;;5020260;28;20188;-64
2023/01/04 07:23:14;;;;;;;14.43;10.13;;;5.60;98.00;;;;;;5025744;28;20244;-64
2023/01/04 07:25:40;;;;;;;11.47;9.47;;;5.70;98.00;;;;;;5016452;28;20187;-64
2023/01/04 07:28:05;;;;;;;12.70;10.10;;;5.70;97.60;;;;;;5021829;28;20193;-64
2023/01/04 07:30:31;;;;;;;13.57;10.03;;;5.70;97.30;;;;;;5029168;28;20186;-64
2023/01/04 07:32:57;;;;;;;12.87;10.43;;;5.60;95.00;;;;;;5027141;28;20256;-64
2023/01/04 07:35:23;;;;;;;10.07;9.00;;;5.60;96.70;;;;;;5012095;28;20267;-64
2023/01/04 07:37:49;;;;;;;10.47;8.93;;;5.70;97.20;;;;;;5021038;28;20226;-64
2023/01/04 07:40:14;;;;;;;11.33;9.23;;;5.70;97.60;;;;;;5019906;28;20471;-64
2023/01/04 07:42:40;;;;;;;13.27;10.10;;;5.80;97.60;;;;;;5008768;28;20442;-64
2023/01/04 07:45:07;;;;;;;10.63;9.07;;;5.80;97.80;;;;;;5001383;28;20259;-64
2023/01/04 07:47:32;;;;;;;11.53;9.20;;;5.90;97.60;;;;;;5031042;28;20184;-65
2023/01/04 07:49:59;;;;;;;10.20;8.33;;;5.90;97.70;;;;;;5014364;28;20434;-64
2023/01/04 07:52:25;;;;;;;12.33;8.40;;;5.90;97.80;;;;;;5017219;28;20210;-64
2023/01/04 07:54:51;;;;;;;11.73;9.37;;;6.00;97.90;;;;;;5024840;28;20411;-65
2023/01/04 07:57:17;;;;;;;11.60;8.87;;;6.00;97.60;;;;;;5027160;28;20909;-63
2023/01/04 07:59:43;;;;;;;13.90;10.67;;;6.00;97.70;;;;;;5019097;28;20465;-63
2023/01/04 08:02:10;;;;;;;15.40;11.10;;;6.00;97.10;;;;;;5028058;28;20184;-64
2023/01/04 08:04:36;;;;;;;15.53;11.37;;;6.10;96.70;;;;;;5014707;28;20211;-64
2023/01/04 08:07:02;;;;;;;14.53;10.93;;;6.10;96.50;;;;;;5009984;28;20523;-64
2023/01/04 08:09:28;;;;;;;14.20;10.80;;;6.10;96.20;;;;;;5027799;28;20255;-65
2023/01/04 08:11:53;;;;;;;16.70;10.70;;;6.10;96.30;;;;;;5026502;28;20558;-66
2023/01/04 08:14:19;;;;;;;12.53;9.47;;;6.20;96.80;;;;;;5018822;28;20194;-63
2023/01/04 08:16:45;;;;;;;12.30;11.00;;;6.20;96.90;;;;;;5030565;28;20698;-64
2023/01/04 08:19:16;;;;;;;12.93;10.80;;;6.20;96.20;;;;;;5046958;28;20197;-63
2023/01/04 08:21:43;;;;;;;14.03;12.27;;;6.30;96.90;;;;;;5036288;28;20433;-63
2023/01/04 08:24:11;;;;;;;17.27;12.40;;;6.30;97.20;;;;;;5030274;28;20509;-65
2023/01/04 08:26:37;;;;;;;15.03;11.50;;;6.30;97.00;;;;;;5027480;28;20418;-64
2023/01/04 08:29:02;;;;;;;15.47;11.70;;;6.30;97.20;;;;;;5032544;28;20488;-67
2023/01/04 08:31:30;;;;;;;15.23;12.77;;;6.30;96.90;;;;;;5024229;28;20221;-64
2023/01/04 08:33:57;;;;;;;15.37;12.23;;;6.30;96.80;;;;;;5031136;28;20181;-64
2023/01/04 08:36:24;;;;;;;11.47;10.27;;;6.40;97.20;;;;;;5022073;28;20464;-64
2023/01/04 08:38:52;;;;;;;13.27;10.17;;;6.40;97.30;;;;;;5034000;28;20441;-64
2023/01/04 08:41:18;;;;;;;13.53;11.53;;;6.40;97.50;;;;;;5045204;28;20933;-64
2023/01/04 08:43:44;;;;;;;12.57;11.27;;;6.40;97.30;;;;;;5026062;28;20520;-64
2023/01/04 08:46:11;;;;;;;13.03;10.77;;;6.40;97.20;;;;;;5028784;28;20191;-64
2023/01/04 08:48:37;;;;;;;16.90;12.13;;;6.40;97.10;;;;;;5017849;28;20265;-65
2023/01/04 08:51:09;;;;;;;13.70;10.87;;;6.40;95.40;;;;;;5016921;28;20496;-61
2023/01/04 08:53:35;;;;;;;13.47;11.07;;;6.30;94.80;;;;;;5037193;28;20499;-65
2023/01/04 08:56:01;;;;;;;13.10;10.30;;;6.30;95.60;;;;;;5026602;28;20473;-66
2023/01/04 08:58:28;;;;;;;14.90;10.70;;;6.30;96.10;;;;;;5026868;28;20241;-64
2023/01/04 09:01:09;;;;;;;12.20;10.33;;;6.40;96.50;;;;;;5047914;28;20240;-64
2023/01/04 09:03:36;;;;;;;14.97;11.30;;;6.30;96.80;;;;;;5032329;28;20429;-64
2023/01/04 09:06:08;;;;;;;13.33;9.50;;;6.30;96.50;;;;;;5027604;28;20438;-64
2023/01/04 09:08:36;;;;;;;13.27;9.93;;;6.30;96.90;;;;;;5034261;28;20448;-64
2023/01/04 09:11:06;;;;;;;13.30;10.63;;;6.30;96.90;;;;;;5024903;28;20445;-67
2023/01/04 09:13:33;;;;;;;13.10;11.60;;;6.30;96.60;;;;;;4982141;28;20496;-66
2023/01/04 09:16:07;;;;;;;12.70;11.20;;;6.30;96.30;;;;;;5019770;28;20434;-66
2023/01/04 09:18:33;;;;;;;13.03;10.97;;;6.30;96.70;;;;;;5029088;28;20445;-66
2023/01/04 09:21:04;;;;;;;13.67;10.73;;;6.30;94.70;;;;;;5028062;28;20465;-66
2023/01/04 09:23:30;;;;;;;13.57;11.40;;;6.40;95.80;;;;;;5027101;28;20433;-66
2023/01/04 09:25:56;;;;;;;15.37;11.30;;;6.40;96.10;;;;;;5030899;28;20944;-66
2023/01/04 09:28:21;;;;;;;13.93;11.97;;;6.40;93.80;;;;;;5036159;28;20426;-66
2023/01/04 09:30:47;;;;;;;15.37;11.70;;;6.50;94.20;;;;;;5004911;28;20200;-66
2023/01/04 09:33:13;;;;;;;13.00;10.37;;;6.50;94.90;;;;;;5010659;28;20227;-66
2023/01/04 09:35:38;;;;;;;14.37;11.07;;;6.50;95.40;;;;;;5027355;28;20202;-66
2023/01/04 09:38:04;;;;;;;13.73;11.87;;;6.50;92.50;;;;;;5013080;28;20187;-66
2023/01/04 09:40:52;;;;;;;13.80;11.70;;;6.60;93.80;;;;;;5018549;28;20259;-66
2023/01/04 09:43:21;;;;;;;19.20;12.33;;;6.60;94.00;;;;;;5017222;28;20188;-66
2023/01/04 09:45:51;;;;;;;15.57;11.40;;;6.60;91.60;;;;;;5027393;28;20527;-66
2023/01/04 09:48:25;;;;;;;17.63;12.90;;;6.60;92.30;;;;;;5020171;28;20449;-66
2023/01/04 09:51:02;;;;;;;16.97;12.23;;;6.70;91.00;;;;;;5033707;28;20448;-65
2023/01/04 09:53:36;;;;;;;17.63;12.97;;;6.70;91.30;;;;;;5025693;28;20452;-66
2023/01/04 09:56:12;;;;;;;13.83;11.70;;;6.80;93.10;;;;;;5028172;28;20431;-66
2023/01/04 09:58:40;;;;;;;22.67;16.10;;;6.80;93.30;;;;;;5022244;28;20438;-64
2023/01/04 10:01:22;;;;;;;21.20;16.77;;;6.80;92.40;;;;;;5019749;28;20461;-64
2023/01/04 10:03:54;;;;;;;19.87;15.40;;;6.90;92.10;;;;;;5024858;28;20513;-68
2023/01/04 10:06:19;;;;;;;19.13;15.57;;;6.90;91.20;;;;;;5016993;28;20518;-66
2023/01/04 10:08:45;;;;;;;23.70;18.27;;;6.90;92.70;;;;;;5030590;28;20524;-65
2023/01/04 10:11:52;;;;;;;24.47;19.53;;;7.00;93.20;;;;;;5021247;28;20194;-65
2023/01/04 10:14:26;;;;;;;24.47;18.43;;;7.00;90.30;;;;;;5025403;28;20195;-66
2023/01/04 10:17:09;;;;;;;28.83;21.50;;;7.00;92.40;;;;;;5034151;28;20446;-68
2023/01/04 10:19:47;;;;;;;24.40;18.83;;;7.10;92.40;;;;;;5029926;28;20435;-69
2023/01/04 10:22:30;;;;;;;20.83;18.60;;;7.20;92.70;;;;;;5034518;28;20459;-69
2023/01/04 10:25:20;;;;;;;23.60;17.97;;;7.30;93.30;;;;;;5041932;28;20437;-69
2023/01/04 10:27:58;;;;;;;21.97;17.80;;;7.30;90.10;;;;;;5027324;28;20425;-69
2023/01/04 10:30:45;;;;;;;20.07;14.87;;;7.40;90.10;;;;;;5021867;28;20423;-69
2023/01/04 10:33:12;;;;;;;19.83;16.20;;;7.40;89.60;;;;;;5017727;28;20943;-69
2023/01/04 10:35:39;;;;;;;21.70;16.73;;;7.50;88.50;;;;;;5017069;28;20782;-68
2023/01/04 10:38:22;;;;;;;21.23;16.40;;;7.50;92.00;;;;;;5030481;28;20426;-67
2023/01/04 10:40:49;;;;;;;19.07;15.60;;;7.50;91.60;;;;;;5015692;28;20427;-69
2023/01/04 10:43:14;;;;;;;20.63;13.93;;;7.50;91.30;;;;;;5014829;28;20503;-73
2023/01/04 10:46:13;;;;;;;16.70;14.20;;;7.50;90.30;;;;;;5028089;28;20430;-69
2023/01/04 10:49:11;;;;;;;17.57;14.40;;;7.50;91.30;;;;;;5023170;28;20204;-67
2023/01/04 10:51:43;;;;;;;18.20;14.43;;;7.50;91.00;;;;;;5027647;28;20179;-71
2023/01/04 10:54:49;;;;;;;22.30;14.93;;;7.50;89.60;;;;;;5023786;28;20195;-70
2023/01/04 10:57:14;;;;;;;17.73;14.17;;;7.60;89.10;;;;;;5044718;28;20955;-71
2023/01/04 10:59:45;;;;;;;18.27;14.23;;;7.80;84.50;;;;;;5018198;28;20176;-68
2023/01/04 11:02:17;;;;;;;18.60;14.93;;;7.80;88.90;;;;;;5025842;28;20233;-67
2023/01/04 11:04:57;;;;;;;17.90;14.10;;;7.80;88.90;;;;;;5025439;28;20187;-68
2023/01/04 11:07:35;;;;;;;16.97;13.03;;;7.90;89.90;;;;;;5016986;28;20496;-67
2023/01/04 11:10:22;;;;;;;21.40;14.13;;;8.00;90.70;;;;;;5023289;28;20214;-66
2023/01/04 11:12:48;;;;;;;17.17;12.90;;;8.00;88.30;;;;;;5032789;28;20457;-66
2023/01/04 11:15:14;;;;;;;16.10;12.63;;;8.10;85.80;;;;;;5020284;28;20195;-69
2023/01/04 11:17:41;;;;;;;14.53;10.70;;;8.10;88.40;;;;;;5019430;28;20187;-68
2023/01/04 11:20:07;;;;;;;15.20;10.23;;;8.20;89.50;;;;;;5030458;28;20656;-68
2023/01/04 11:22:54;;;;;;;14.97;10.73;;;8.20;89.10;;;;;;5021049;28;20183;-68
2023/01/04 11:25:22;;;;;;;11.43;9.50;;;8.20;89.60;;;;;;5020703;28;20191;-67
2023/01/04 11:27:57;;;;;;;14.07;10.83;;;8.30;88.30;;;;;;5023753;28;20194;-65
2023/01/04 11:30:29;;;;;;;12.27;10.23;;;8.30;87.70;;;;;;5023614;28;20187;-68
2023/01/04 11:33:02;;;;;;;11.10;9.10;;;8.40;87.60;;;;;;5019521;28;20289;-68
2023/01/04 11:35:44;;;;;;;10.53;8.70;;;8.40;84.80;;;;;;5016291;28;20229;-68
2023/01/04 11:38:21;;;;;;;14.13;9.10;;;8.40;83.70;;;;;;5033292;28;20209;-68
2023/01/04 11:41:04;;;;;;;13.10;10.47;;;8.50;82.90;;;;;;5027431;28;20176;-68
2023/01/04 11:43:32;;;;;;;11.93;9.30;;;8.60;85.30;;;;;;5028748;28;20182;-68
2023/01/04 11:46:01;;;;;;;10.60;8.43;;;8.70;81.50;;;;;;5032173;28;20289;-68
2023/01/04 11:48:37;;;;;;;12.57;9.67;;;8.70;81.50;;;;;;5033001;28;20634;-68
2023/01/04 11:51:05;;;;;;;11.27;9.40;;;8.80;83.30;;;;;;5026191;28;20191;-68
2023/01/04 11:53:34;;;;;;;11.13;8.93;;;8.80;84.20;;;;;;5008713;28;20242;-68
2023/01/04 11:56:12;;;;;;;10.97;8.53;;;8.80;84.50;;;;;;5027426;28;20186;-65
2023/01/04 11:58:39;;;;;;;23.97;16.80;;;8.90;84.90;;;;;;5029973;28;20546;-65
2023/01/04 12:01:05;;;;;;;16.10;12.50;;;9.00;82.80;;;;;;5027534;28;20254;-66
2023/01/04 12:03:37;;;;;;;12.60;9.53;;;9.00;84.10;;;;;;5019173;28;20187;-67
2023/01/04 12:06:16;;;;;;;13.60;10.40;;;9.20;80.70;;;;;;5037117;28;20193;-66
2023/01/04 12:08:42;;;;;;;11.83;10.63;;;9.20;81.70;;;;;;5023117;28;20191;-67
2023/01/04 12:11:19;;;;;;;12.37;9.30;;;9.20;81.60;;;;;;5026021;28;20197;-67
2023/01/04 12:13:45;;;;;;;10.70;9.60;;;9.40;80.00;;;;;;5021416;28;20577;-67
2023/01/04 12:16:33;;;;;;;13.13;10.03;;;9.40;80.80;;;;;;5016312;28;20187;-67
2023/01/04 12:18:59;;;;;;;10.50;9.40;;;9.40;78.40;;;;;;5021370;28;20184;-67
2023/01/04 12:21:26;;;;;;;12.37;8.77;;;9.60;80.00;;;;;;5006179;28;20192;-66
2023/01/04 12:23:53;;;;;;;9.87;8.57;;;9.60;81.20;;;;;;5013164;28;20188;-66
2023/01/04 12:26:22;;;;;;;9.43;8.50;;;9.70;76.50;;;;;;5014504;28;20192;-66
2023/01/04 12:29:09;;;;;;;9.73;8.33;;;9.80;77.10;;;;;;5024113;28;20191;-67
2023/01/04 12:31:35;;;;;;;8.57;7.57;;;9.90;78.70;;;;;;4992075;28;20195;-67
2023/01/04 12:34:13;;;;;;;9.83;8.67;;;10.00;76.90;;;;;;5012227;28;20253;-66
2023/01/04 12:36:38;;;;;;;9.90;8.03;;;10.00;74.50;;;;;;5021524;28;20190;-66
2023/01/04 12:39:13;;;;;;;8.27;7.47;;;10.00;75.80;;;;;;5032486;28;20183;-67
2023/01/04 12:41:39;;;;;;;8.90;7.17;;;10.10;76.60;;;;;;5024808;28;20184;-67
2023/01/04 12:44:35;;;;;;;9.93;7.93;;;10.20;74.10;;;;;;5030115;28;20207;-67
2023/01/04 12:50:10;;;;;;;11.43;8.67;;;10.20;72.60;;;;;;5028561;28;20194;-67
2023/01/04 12:52:43;;;;;;;10.53;8.43;;;10.20;73.20;;;;;;5028458;28;20231;-67
2023/01/04 12:55:18;;;;;;;11.33;8.60;;;10.30;72.60;;;;;;5024327;28;20239;-67
2023/01/04 12:57:44;;;;;;;8.73;7.37;;;10.30;72.60;;;;;;5041093;28;20187;-67
2023/01/04 13:00:14;;;;;;;10.97;8.73;;;10.30;73.80;;;;;;5027322;28;20229;-67
2023/01/04 13:02:51;;;;;;;10.60;8.17;;;10.40;73.40;;;;;;5027647;28;20187;-67
2023/01/04 13:05:17;;;;;;;10.90;8.50;;;10.50;73.40;;;;;;5042570;28;20258;-67
2023/01/04 13:07:55;;;;;;;12.83;8.17;;;10.50;72.00;;;;;;5036051;28;20322;-67
2023/01/04 13:10:33;;;;;;;10.13;8.87;;;10.50;72.20;;;;;;5022410;28;20194;-67
2023/01/04 13:13:17;;;;;;;12.60;9.90;;;10.50;72.30;;;;;;5006209;28;20234;-67
2023/01/04 13:16:16;;;;;;;12.37;9.53;;;10.50;72.60;;;;;;5036191;28;20180;-67
2023/01/04 13:18:53;;;;;;;11.97;8.77;;;10.50;71.50;;;;;;5034492;28;20249;-67
2023/01/04 13:21:38;;;;;;;9.87;8.57;;;10.60;71.50;;;;;;5029509;28;20188;-67
2023/01/04 13:24:16;;;;;;;9.83;8.37;;;10.70;71.20;;;;;;5020945;28;20192;-67
2023/01/04 13:26:47;;;;;;;10.93;8.30;;;10.70;71.20;;;;;;5031942;28;20183;-66
2023/01/04 13:29:23;;;;;;;8.67;7.73;;;10.70;70.30;;;;;;5017312;28;20245;-67
2023/01/04 13:32:21;;;;;;;10.57;8.60;;;10.80;71.00;;;;;;5031838;28;20223;-67
2023/01/04 13:34:46;;;;;;;10.13;8.33;;;10.80;70.90;;;;;;5010380;28;20250;-67
2023/01/04 13:37:18;;;;;;;11.47;9.30;;;10.80;70.70;;;;;;5032035;28;20190;-67
2023/01/04 13:39:51;;;;;;;8.73;7.83;;;10.90;70.70;;;;;;5023955;28;20447;-67